Time;durP1;ratioP1;P1;durP2;ratioP2;P2;SDS_P1;SDS_P2;PMS_P1;PMS_P2;Temp;Humidity;BMP_temperature;BMP_pressure;BME280_temperature;BME280_humidity;BME280_pressure;Samples;Min_cycle;Max_cycle;Signal;HPM_P1;HPM_P2
2023/10/03 00:02:55;;;;;;;10.55;5.00;;;22.20;56.50;;;;;;5965374;29;20050;-77
2023/10/03 00:05:55;;;;;;;10.80;5.38;;;22.20;56.50;;;;;;5965306;29;20038;-77
2023/10/03 00:08:56;;;;;;;12.18;5.15;;;22.20;56.50;;;;;;5965420;29;20049;-79
2023/10/03 00:11:57;;;;;;;9.18;5.28;;;22.20;56.50;;;;;;5994603;29;20403;-77
2023/10/03 00:14:58;;;;;;;14.40;5.28;;;22.20;56.50;;;;;;6001386;29;20042;-78
2023/10/03 00:17:59;;;;;;;9.10;4.80;;;22.10;56.50;;;;;;5950026;29;20137;-77
2023/10/03 00:21:00;;;;;;;11.40;5.88;;;22.10;56.70;;;;;;5961512;29;20552;-77
2023/10/03 00:24:01;;;;;;;10.52;5.53;;;22.10;56.80;;;;;;5971717;29;20030;-77
2023/10/03 00:27:05;;;;;;;9.27;5.15;;;22.10;56.90;;;;;;5981393;29;20419;-79
2023/10/03 00:30:10;;;;;;;14.27;5.65;;;22.10;57.00;;;;;;5981395;29;20066;-77
2023/10/03 00:33:12;;;;;;;10.75;4.90;;;22.10;56.90;;;;;;5964821;29;20447;-77
2023/10/03 00:36:19;;;;;;;11.07;5.32;;;22.10;56.90;;;;;;5981716;29;20048;-78
2023/10/03 00:39:22;;;;;;;12.45;5.15;;;22.00;56.80;;;;;;5979930;29;20038;-78
2023/10/03 00:42:24;;;;;;;18.17;6.00;;;22.00;56.90;;;;;;5981058;29;20057;-78
2023/10/03 00:45:31;;;;;;;12.20;5.18;;;22.00;56.90;;;;;;5968515;29;20397;-77
2023/10/03 00:48:32;;;;;;;9.88;5.53;;;22.00;56.90;;;;;;5940643;29;20087;-76
2023/10/03 00:51:35;;;;;;;16.52;6.25;;;21.90;57.00;;;;;;5951782;29;20126;-79
2023/10/03 00:54:39;;;;;;;12.95;5.30;;;21.80;57.10;;;;;;5964859;29;20041;-77
2023/10/03 00:57:42;;;;;;;14.13;5.32;;;21.80;57.20;;;;;;5966801;29;20030;-78
2023/10/03 01:00:49;;;;;;;16.20;6.28;;;21.70;57.30;;;;;;5992585;29;20032;-79
2023/10/03 01:03:50;;;;;;;11.77;5.82;;;21.70;57.40;;;;;;5987950;29;20125;-78
2023/10/03 01:06:51;;;;;;;12.52;5.75;;;21.70;57.40;;;;;;5980513;29;20039;-77
2023/10/03 01:09:53;;;;;;;10.32;5.80;;;21.60;57.40;;;;;;5978789;29;20122;-78
2023/10/03 01:12:54;;;;;;;22.38;6.40;;;21.60;57.50;;;;;;5983400;29;20112;-77
2023/10/03 01:15:55;;;;;;;9.60;6.15;;;21.60;57.50;;;;;;5981260;29;20087;-77
2023/10/03 01:19:10;;;;;;;9.68;5.80;;;21.60;57.50;;;;;;5962923;29;20034;-78
2023/10/03 01:22:13;;;;;;;12.43;6.45;;;21.60;57.60;;;;;;5972293;29;20046;-78
2023/10/03 01:25:14;;;;;;;12.40;5.65;;;21.60;57.50;;;;;;5964444;29;20115;-78
2023/10/03 01:28:16;;;;;;;15.43;6.22;;;21.60;57.60;;;;;;5964125;29;20129;-78
2023/10/03 01:31:16;;;;;;;11.45;5.95;;;21.70;57.70;;;;;;5961376;29;20153;-77
2023/10/03 01:34:17;;;;;;;10.25;5.30;;;21.50;57.70;;;;;;5945833;29;20065;-78
2023/10/03 01:37:19;;;;;;;15.40;5.30;;;21.50;57.80;;;;;;5965323;29;20476;-78
2023/10/03 01:40:20;;;;;;;11.80;5.93;;;21.50;58.50;;;;;;5952607;29;20038;-78
2023/10/03 01:43:21;;;;;;;12.98;6.00;;;21.40;58.00;;;;;;5952896;29;20034;-78
2023/10/03 01:46:22;;;;;;;14.40;5.60;;;21.30;58.20;;;;;;5967485;29;20061;-78
2023/10/03 01:49:25;;;;;;;13.13;5.57;;;21.30;58.30;;;;;;5980127;29;20037;-78
2023/10/03 01:52:26;;;;;;;13.27;4.93;;;21.30;58.60;;;;;;5967842;29;20030;-79
2023/10/03 01:55:26;;;;;;;15.15;5.40;;;21.20;58.50;;;;;;5967917;29;20046;-79
2023/10/03 01:58:27;;;;;;;11.27;5.60;;;21.30;58.70;;;;;;5968307;29;20057;-77
2023/10/03 02:01:29;;;;;;;15.93;5.35;;;21.30;58.70;;;;;;5968977;29;20061;-78
2023/10/03 02:04:30;;;;;;;12.48;5.13;;;21.40;59.30;;;;;;5980886;29;20090;-78
2023/10/03 02:07:31;;;;;;;9.23;4.38;;;21.20;58.60;;;;;;5983273;29;20396;-78
2023/10/03 02:10:33;;;;;;;11.38;5.05;;;21.10;58.60;;;;;;5982969;29;20038;-77
2023/10/03 02:13:34;;;;;;;14.05;5.32;;;21.10;58.70;;;;;;5962428;29;20664;-77
2023/10/03 02:16:41;;;;;;;10.48;4.82;;;21.10;58.70;;;;;;5983985;29;20114;-76
2023/10/03 02:19:41;;;;;;;12.95;5.00;;;21.00;58.70;;;;;;5951875;29;20129;-77
2023/10/03 02:22:42;;;;;;;11.95;5.35;;;21.00;58.80;;;;;;5966367;29;20518;-77
2023/10/03 02:25:45;;;;;;;10.63;4.80;;;20.90;58.70;;;;;;5931934;29;20129;-78
2023/10/03 02:28:46;;;;;;;9.90;4.63;;;20.90;58.90;;;;;;5959324;29;20039;-79
2023/10/03 02:31:46;;;;;;;14.32;5.38;;;20.80;58.80;;;;;;5958905;29;20069;-77
2023/10/03 02:34:48;;;;;;;14.05;5.47;;;20.90;58.80;;;;;;5950280;29;20042;-78
2023/10/03 02:37:52;;;;;;;9.20;4.68;;;20.90;58.90;;;;;;5983252;29;20113;-78
2023/10/03 02:40:57;;;;;;;9.18;5.15;;;20.90;58.90;;;;;;5958658;29;20038;-77
2023/10/03 02:44:01;;;;;;;;;;;20.90;59.50;;;;;;5970615;29;20505;-77
2023/10/03 02:47:04;;;;;;;15.45;4.60;;;20.90;58.90;;;;;;5958944;29;20331;-77
2023/10/03 02:50:06;;;;;;;10.73;5.13;;;20.90;58.80;;;;;;5961260;29;20541;-77
2023/10/03 02:53:12;;;;;;;13.20;6.03;;;20.90;59.00;;;;;;5968166;29;20051;-78
2023/10/03 02:56:14;;;;;;;12.18;5.07;;;20.90;59.10;;;;;;5956269;29;20034;-77
2023/10/03 02:59:15;;;;;;;10.27;5.72;;;20.90;59.20;;;;;;5978164;29;20042;-78
2023/10/03 03:02:16;;;;;;;17.38;6.43;;;20.80;59.30;;;;;;5966628;29;20061;-78
2023/10/03 03:05:17;;;;;;;10.90;5.53;;;20.80;59.40;;;;;;5966045;29;20392;-77
2023/10/03 03:11:21;;;;;;;12.02;5.78;;;20.80;59.60;;;;;;5974937;29;20034;-79
2023/10/03 03:14:22;;;;;;;8.98;5.30;;;20.80;59.60;;;;;;5988888;29;20101;-77
2023/10/03 03:17:23;;;;;;;10.45;5.78;;;20.70;59.60;;;;;;6003526;29;20042;-77
2023/10/03 03:20:37;;;;;;;9.48;4.72;;;20.70;59.60;;;;;;6003528;29;20157;-78
2023/10/03 03:23:39;;;;;;;9.07;5.03;;;20.70;59.80;;;;;;6005154;29;20037;-76
2023/10/03 03:26:46;;;;;;;11.30;5.28;;;20.60;59.80;;;;;;6003058;29;20056;-77
2023/10/03 03:30:15;;;;;;;8.80;5.20;;;20.60;59.80;;;;;;5987888;29;20054;-78
2023/10/03 03:33:09;;;;;;;9.38;4.65;;;20.60;59.90;;;;;;5959654;29;20720;-78
2023/10/03 03:36:18;;;;;;;11.00;5.15;;;20.50;59.90;;;;;;5958338;29;20149;-77
2023/10/03 03:39:20;;;;;;;9.57;4.70;;;20.50;60.00;;;;;;5970481;29;20447;-78
2023/10/03 03:42:25;;;;;;;11.38;4.47;;;20.50;60.10;;;;;;5965663;29;20038;-78
2023/10/03 03:45:26;;;;;;;9.38;5.00;;;20.50;60.10;;;;;;5950313;29;20030;-77
2023/10/03 03:48:27;;;;;;;12.80;5.03;;;20.40;60.10;;;;;;5965141;29;20143;-78
2023/10/03 03:51:30;;;;;;;8.55;4.55;;;20.40;60.20;;;;;;5950423;29;20050;-77
2023/10/03 03:54:31;;;;;;;8.88;5.43;;;20.40;60.40;;;;;;5950691;29;20402;-79
2023/10/03 03:57:32;;;;;;;9.88;5.13;;;20.40;60.50;;;;;;5981725;29;20030;-76
2023/10/03 04:00:34;;;;;;;12.38;5.47;;;20.40;60.70;;;;;;5980786;29;20061;-76
2023/10/03 04:03:35;;;;;;;9.32;4.93;;;20.40;60.70;;;;;;5982009;29;20046;-76
2023/10/03 04:06:36;;;;;;;8.23;4.90;;;20.30;60.70;;;;;;5950081;29;20038;-78
2023/10/03 04:09:37;;;;;;;8.18;4.90;;;20.40;60.80;;;;;;5964844;29;20754;-77
2023/10/03 04:12:41;;;;;;;11.20;5.68;;;20.40;60.70;;;;;;6000177;29;20101;-78
2023/10/03 04:15:44;;;;;;;10.30;5.55;;;20.40;60.60;;;;;;6004245;29;20034;-77
2023/10/03 04:18:49;;;;;;;13.07;6.15;;;20.30;60.40;;;;;;5987317;29;20046;-77
2023/10/03 04:21:50;;;;;;;11.10;6.28;;;20.30;60.40;;;;;;5987582;29;20042;-78
2023/10/03 04:24:51;;;;;;;13.85;6.60;;;20.30;60.40;;;;;;5987480;29;20064;-77
2023/10/03 04:27:53;;;;;;;16.38;8.93;;;20.30;60.40;;;;;;5992420;29;20114;-78
2023/10/03 04:30:54;;;;;;;27.27;12.93;;;20.30;60.40;;;;;;5964620;29;20026;-77
2023/10/03 04:33:55;;;;;;;15.82;8.20;;;20.30;60.40;;;;;;5965293;29;20365;-78
2023/10/03 04:36:57;;;;;;;20.50;11.63;;;20.10;60.30;;;;;;5965321;29;20043;-77
2023/10/03 04:39:58;;;;;;;17.33;9.82;;;20.20;60.30;;;;;;5964651;29;20073;-78
2023/10/03 04:42:59;;;;;;;16.98;10.43;;;20.30;60.40;;;;;;5981752;29;20901;-78
2023/10/03 04:46:01;;;;;;;22.50;8.52;;;20.00;60.20;;;;;;5964800;29;20480;-77
2023/10/03 04:49:02;;;;;;;15.13;8.20;;;20.30;60.40;;;;;;5981321;29;20393;-79
2023/10/03 04:52:07;;;;;;;16.23;7.97;;;20.20;60.40;;;;;;5982413;29;20060;-77
2023/10/03 04:55:08;;;;;;;13.75;6.93;;;20.20;60.60;;;;;;5968788;29;20081;-77
2023/10/03 04:58:09;;;;;;;11.35;6.28;;;20.20;60.70;;;;;;5964454;29;20522;-79
2023/10/03 05:01:10;;;;;;;11.60;6.45;;;20.20;60.80;;;;;;5966560;29;20141;-78
2023/10/03 05:04:12;;;;;;;15.05;6.68;;;20.10;61.00;;;;;;5999874;29;20082;-77
2023/10/03 05:07:13;;;;;;;15.18;7.25;;;20.10;61.20;;;;;;5969519;29;20042;-78
2023/10/03 05:10:15;;;;;;;9.82;6.53;;;20.10;61.30;;;;;;5980534;29;20042;-76
2023/10/03 05:13:16;;;;;;;23.58;7.65;;;20.10;61.50;;;;;;5967730;29;20116;-77
2023/10/03 05:16:17;;;;;;;13.90;7.35;;;20.00;61.60;;;;;;5968685;29;20086;-77
2023/10/03 05:19:19;;;;;;;16.15;7.00;;;20.00;61.60;;;;;;5968573;29;20460;-77
2023/10/03 05:22:20;;;;;;;12.18;6.32;;;20.00;61.70;;;;;;5985253;29;20092;-77
2023/10/03 05:25:21;;;;;;;16.85;5.53;;;20.00;61.70;;;;;;5984540;29;20208;-77
2023/10/03 05:28:22;;;;;;;17.58;6.53;;;20.00;61.60;;;;;;5968425;29;20043;-78
2023/10/03 05:31:23;;;;;;;10.93;6.10;;;20.00;61.60;;;;;;5967951;29;20049;-78
2023/10/03 05:34:24;;;;;;;13.90;5.75;;;19.90;61.70;;;;;;5983036;29;20052;-78
2023/10/03 05:37:25;;;;;;;12.23;5.72;;;19.90;61.70;;;;;;5968594;29;20054;-77
2023/10/03 05:40:26;;;;;;;12.35;6.40;;;19.90;61.80;;;;;;5967452;29;20129;-79
2023/10/03 05:43:28;;;;;;;14.27;4.85;;;19.90;61.90;;;;;;5968340;29;20140;-78
2023/10/03 05:46:32;;;;;;;13.52;4.85;;;19.90;61.90;;;;;;5984687;29;20830;-79
2023/10/03 05:49:32;;;;;;;10.80;5.38;;;19.90;61.90;;;;;;5967291;29;20121;-78
2023/10/03 05:52:33;;;;;;;14.85;5.90;;;19.90;61.90;;;;;;5968161;29;20386;-78
2023/10/03 05:55:34;;;;;;;10.05;5.00;;;19.80;61.90;;;;;;5984287;29;20037;-77
2023/10/03 05:58:37;;;;;;;9.88;5.13;;;19.80;61.90;;;;;;5982592;29;20066;-77
2023/10/03 06:01:38;;;;;;;15.55;5.78;;;19.80;62.00;;;;;;5965328;29;20095;-78
2023/10/03 06:04:39;;;;;;;12.23;5.38;;;19.80;61.90;;;;;;5945040;29;20043;-79
2023/10/03 06:07:41;;;;;;;13.80;4.88;;;19.80;61.90;;;;;;5944923;29;20049;-78
2023/10/03 06:10:42;;;;;;;10.23;5.45;;;19.80;61.90;;;;;;5969559;29;20102;-77
2023/10/03 06:13:44;;;;;;;11.05;5.32;;;19.80;61.80;;;;;;6008558;29;20101;-78
2023/10/03 06:16:45;;;;;;;10.55;5.38;;;19.90;61.80;;;;;;6006464;29;20491;-79
2023/10/03 06:19:46;;;;;;;12.63;5.00;;;19.90;61.70;;;;;;5998731;29;20050;-78
2023/10/03 06:22:47;;;;;;;21.00;6.35;;;19.90;61.80;;;;;;5966230;29;20505;-77
2023/10/03 06:25:48;;;;;;;12.30;5.28;;;19.90;61.80;;;;;;5983586;29;20091;-76
2023/10/03 06:28:49;;;;;;;14.48;5.60;;;19.90;61.90;;;;;;5966437;29;20082;-79
2023/10/03 06:31:51;;;;;;;9.52;5.47;;;19.90;62.00;;;;;;5969647;29;20095;-78
2023/10/03 06:34:52;;;;;;;16.83;5.65;;;19.90;62.10;;;;;;5981973;29;20125;-79
2023/10/03 06:37:53;;;;;;;11.48;5.82;;;19.90;62.20;;;;;;5966932;29;20377;-78
2023/10/03 06:40:54;;;;;;;27.35;7.82;;;19.90;62.10;;;;;;5983928;29;20129;-78
2023/10/03 06:43:55;;;;;;;23.27;6.05;;;20.00;62.20;;;;;;5966885;29;20491;-78
2023/10/03 06:46:55;;;;;;;20.05;6.93;;;20.00;62.10;;;;;;5982928;29;20042;-78
2023/10/03 06:49:56;;;;;;;13.82;6.70;;;20.00;62.10;;;;;;5973007;29;20062;-77
2023/10/03 06:52:57;;;;;;;17.33;6.30;;;20.00;62.10;;;;;;5966431;29;20499;-78
2023/10/03 06:55:59;;;;;;;22.08;6.82;;;20.10;62.10;;;;;;5982968;29;20084;-78
2023/10/03 06:59:00;;;;;;;11.70;6.68;;;20.10;62.10;;;;;;5966170;29;20133;-78
2023/10/03 07:02:03;;;;;;;14.90;7.07;;;20.20;62.00;;;;;;5981893;29;20048;-79
2023/10/03 07:05:05;;;;;;;14.02;6.97;;;20.30;62.00;;;;;;5968436;29;20042;-77
2023/10/03 07:08:07;;;;;;;23.98;6.80;;;20.30;61.80;;;;;;5996112;29;20167;-78
2023/10/03 07:11:12;;;;;;;15.20;6.72;;;20.30;61.60;;;;;;5969386;29;20066;-79
2023/10/03 07:14:14;;;;;;;22.05;6.50;;;20.30;61.50;;;;;;5983348;29;20043;-79
2023/10/03 07:17:15;;;;;;;15.00;7.43;;;20.40;61.40;;;;;;5966874;29;20086;-77
2023/10/03 07:20:17;;;;;;;16.17;7.80;;;20.50;61.40;;;;;;5943679;29;20043;-79
2023/10/03 07:23:19;;;;;;;14.05;7.15;;;20.50;61.20;;;;;;5943697;29;20051;-77
2023/10/03 07:26:20;;;;;;;19.10;6.70;;;20.60;61.10;;;;;;5943429;29;20043;-77
2023/10/03 07:29:21;;;;;;;18.65;7.72;;;20.70;60.90;;;;;;5963816;29;20113;-78
2023/10/03 07:32:22;;;;;;;14.57;6.63;;;20.70;60.70;;;;;;5950645;29;20141;-77
2023/10/03 07:35:24;;;;;;;14.95;7.00;;;20.90;60.60;;;;;;5982482;29;20254;-77
2023/10/03 07:38:25;;;;;;;19.80;7.45;;;20.90;60.10;;;;;;5966384;29;20157;-79
2023/10/03 07:41:27;;;;;;;28.45;6.57;;;21.00;60.00;;;;;;5987436;29;20019;-77
2023/10/03 07:44:28;;;;;;;25.85;7.57;;;21.10;59.80;;;;;;5987168;29;20543;-78
2023/10/03 07:47:28;;;;;;;18.17;6.57;;;21.20;59.60;;;;;;5988822;29;20183;-77
2023/10/03 07:50:29;;;;;;;17.95;6.80;;;21.30;59.50;;;;;;5980331;29;20118;-78
2023/10/03 07:53:30;;;;;;;22.15;7.03;;;22.20;59.70;;;;;;5965757;29;20091;-79
2023/10/03 07:56:32;;;;;;;14.98;5.93;;;21.60;59.20;;;;;;5982059;29;20038;-77
2023/10/03 07:59:33;;;;;;;14.40;6.40;;;21.70;59.00;;;;;;5964676;29;20105;-79
2023/10/03 08:02:34;;;;;;;16.70;7.05;;;21.80;58.80;;;;;;5964887;29;20042;-77
2023/10/03 08:05:37;;;;;;;17.30;6.57;;;21.90;58.70;;;;;;5964823;29;20132;-79
2023/10/03 08:08:37;;;;;;;19.33;6.85;;;22.20;58.70;;;;;;5979949;29;20039;-79
2023/10/03 08:11:38;;;;;;;16.42;6.32;;;22.10;58.50;;;;;;5964879;29;20061;-78
2023/10/03 08:14:40;;;;;;;11.55;6.25;;;22.20;58.30;;;;;;5964698;29;20057;-79
2023/10/03 08:17:41;;;;;;;14.60;6.90;;;22.30;58.10;;;;;;5981337;29;20050;-79
2023/10/03 08:20:42;;;;;;;12.73;6.32;;;22.40;58.00;;;;;;5981473;29;20034;-77
2023/10/03 08:23:51;;;;;;;13.35;6.35;;;22.50;57.80;;;;;;5964836;29;20041;-78
2023/10/03 08:26:52;;;;;;;14.45;6.40;;;22.70;57.60;;;;;;5964496;29;20121;-79
2023/10/03 08:29:57;;;;;;;19.10;7.40;;;22.80;57.20;;;;;;5949479;29;20044;-77
2023/10/03 08:33:01;;;;;;;18.20;6.97;;;22.90;56.90;;;;;;5964202;29;20297;-78
2023/10/03 08:36:14;;;;;;;13.70;5.95;;;22.90;56.40;;;;;;5981447;29;20042;-77
2023/10/03 08:39:15;;;;;;;16.73;6.05;;;23.10;56.10;;;;;;5964561;29;20042;-78
2023/10/03 08:42:20;;;;;;;21.95;6.07;;;23.10;55.60;;;;;;5964564;29;20043;-77
2023/10/03 08:45:25;;;;;;;19.58;5.80;;;23.20;54.90;;;;;;5964199;29;20516;-78
2023/10/03 08:48:31;;;;;;;14.50;5.70;;;23.30;54.50;;;;;;5980715;29;20030;-79
2023/10/03 08:51:32;;;;;;;18.65;6.22;;;23.50;55.00;;;;;;5964398;29;20568;-78
2023/10/03 08:54:37;;;;;;;15.63;5.88;;;23.40;54.30;;;;;;5964590;29;20152;-76
2023/10/03 08:57:40;;;;;;;13.30;5.13;;;23.50;54.10;;;;;;5984249;29;20057;-78
2023/10/03 09:00:46;;;;;;;13.57;5.28;;;23.60;53.80;;;;;;5966020;29;20042;-78
2023/10/03 09:03:51;;;;;;;8.55;4.55;;;23.60;53.40;;;;;;5979129;29;20046;-79
2023/10/03 09:06:57;;;;;;;15.07;4.88;;;23.80;53.20;;;;;;5980694;29;20066;-78
2023/10/03 09:10:08;;;;;;;16.27;4.82;;;23.80;52.90;;;;;;5980554;29;20124;-78
2023/10/03 09:13:15;;;;;;;11.00;4.90;;;23.90;52.70;;;;;;5965776;29;20026;-77
2023/10/03 09:16:19;;;;;;;14.50;5.25;;;23.90;52.50;;;;;;5981944;29;20104;-78
2023/10/03 09:19:44;;;;;;;6.50;4.47;;;24.00;52.40;;;;;;5979187;29;20149;-77
2023/10/03 09:22:46;;;;;;;9.07;4.65;;;24.00;52.10;;;;;;5980885;29;20034;-79
2023/10/03 09:25:55;;;;;;;11.60;4.82;;;24.10;52.00;;;;;;5964492;29;20484;-77
2023/10/03 09:28:58;;;;;;;11.27;4.93;;;24.10;51.80;;;;;;5963967;29;20707;-78
2023/10/03 09:32:12;;;;;;;13.38;4.25;;;24.20;51.60;;;;;;5964477;29;20034;-77
2023/10/03 09:35:13;;;;;;;10.15;5.20;;;24.30;51.30;;;;;;5963963;29;20034;-80
2023/10/03 09:38:19;;;;;;;11.65;4.53;;;24.40;51.20;;;;;;5963297;29;20034;-79
2023/10/03 09:41:23;;;;;;;13.55;4.93;;;24.50;51.00;;;;;;5964110;29;20397;-78
2023/10/03 09:44:30;;;;;;;7.55;5.05;;;24.50;50.60;;;;;;5964067;29;20038;-78
2023/10/03 09:47:31;;;;;;;14.77;6.30;;;24.60;50.50;;;;;;5964113;29;20395;-77
2023/10/03 09:50:32;;;;;;;13.30;6.72;;;24.70;50.20;;;;;;5963568;29;20133;-79
2023/10/03 09:53:36;;;;;;;18.88;6.28;;;24.70;50.00;;;;;;5963732;29;20529;-78
2023/10/03 09:56:41;;;;;;;18.67;7.32;;;24.80;49.60;;;;;;5980428;29;20047;-79
2023/10/03 09:59:50;;;;;;;10.40;5.60;;;24.80;49.10;;;;;;5983435;29;20117;-79
2023/10/03 10:02:55;;;;;;;14.57;5.35;;;24.80;48.80;;;;;;5983930;29;20065;-77
2023/10/03 10:06:12;;;;;;;10.35;5.03;;;24.90;48.80;;;;;;5966997;29;20126;-79
2023/10/03 10:09:27;;;;;;;11.43;5.40;;;25.00;48.50;;;;;;5983541;29;20041;-77
2023/10/03 10:12:28;;;;;;;11.90;5.05;;;25.10;48.60;;;;;;5985117;29;20348;-79
2023/10/03 10:15:31;;;;;;;12.68;4.80;;;25.20;48.40;;;;;;5988390;29;20042;-79
2023/10/03 10:18:43;;;;;;;17.27;4.93;;;25.30;48.20;;;;;;5984029;29;20515;-79
2023/10/03 10:21:51;;;;;;;8.90;4.90;;;25.50;47.70;;;;;;5985730;29;20137;-78
2023/10/03 10:25:51;;;;;;;13.07;5.47;;;25.70;47.30;;;;;;5967485;29;20129;-79
2023/10/03 10:28:51;;;;;;;14.20;6.65;;;25.90;47.10;;;;;;5966295;29;20133;-80
2023/10/03 10:31:59;;;;;;;25.85;5.00;;;26.20;46.70;;;;;;5983836;29;20050;-78
2023/10/03 10:35:02;;;;;;;14.10;4.50;;;26.50;46.30;;;;;;5983434;29;20037;-78
2023/10/03 10:38:06;;;;;;;13.52;5.07;;;26.80;46.00;;;;;;5966861;29;20421;-79
2023/10/03 10:41:17;;;;;;;19.17;5.43;;;27.10;45.50;;;;;;5967299;29;20034;-79
2023/10/03 10:44:21;;;;;;;18.45;4.93;;;27.40;44.90;;;;;;5966723;29;20107;-78
2023/10/03 10:47:24;;;;;;;8.93;4.05;;;27.70;44.30;;;;;;5966965;29;20113;-78
2023/10/03 10:50:28;;;;;;;11.48;4.82;;;28.10;43.70;;;;;;5983484;29;20662;-78
2023/10/03 10:53:43;;;;;;;8.38;4.25;;;28.40;43.20;;;;;;5966848;29;20639;-78
2023/10/03 10:56:46;;;;;;;10.60;4.07;;;28.70;42.40;;;;;;5984481;29;20037;-80
2023/10/03 10:59:47;;;;;;;10.20;4.25;;;29.00;42.60;;;;;;5966624;29;20042;-79
2023/10/03 11:02:48;;;;;;;10.63;4.13;;;29.20;41.60;;;;;;5966348;29;20046;-78
2023/10/03 11:05:50;;;;;;;22.35;8.02;;;29.50;41.20;;;;;;5965974;29;20410;-79
2023/10/03 11:08:51;;;;;;;10.35;5.13;;;29.80;40.50;;;;;;5965735;29;20079;-79
2023/10/03 11:11:52;;;;;;;6.65;3.97;;;30.10;39.90;;;;;;5963400;29;20041;-79
2023/10/03 11:14:55;;;;;;;7.82;4.47;;;30.50;39.10;;;;;;6005091;29;20053;-79
2023/10/03 11:17:58;;;;;;;6.50;3.95;;;30.80;38.10;;;;;;5988299;29;20177;-80
2023/10/03 11:21:02;;;;;;;8.93;3.97;;;31.20;37.20;;;;;;5988759;29;20073;-79
2023/10/03 11:24:13;;;;;;;7.55;3.95;;;31.60;36.80;;;;;;6005034;29;20114;-79
2023/10/03 11:27:31;;;;;;;7.47;3.80;;;32.00;36.00;;;;;;6003185;29;20042;-79
2023/10/03 11:30:31;;;;;;;11.32;3.95;;;32.50;35.10;;;;;;6003277;29;20082;-80
2023/10/03 11:33:43;;;;;;;11.02;3.72;;;32.90;34.60;;;;;;5989782;29;20046;-79
2023/10/03 11:36:45;;;;;;;15.73;3.53;;;33.20;34.00;;;;;;5994207;29;20038;-79
2023/10/03 11:39:46;;;;;;;8.95;3.53;;;33.40;33.70;;;;;;6009152;29;20106;-80
2023/10/03 11:43:04;;;;;;;5.72;3.67;;;33.90;33.20;;;;;;6013731;29;20484;-79
2023/10/03 11:46:05;;;;;;;7.57;3.78;;;34.30;32.40;;;;;;6003117;29;20167;-79
2023/10/03 11:49:08;;;;;;;6.45;3.30;;;34.80;31.80;;;;;;6005052;29;20437;-79
2023/10/03 11:52:08;;;;;;;10.15;3.90;;;35.20;30.70;;;;;;5988038;29;20065;-78
2023/10/03 11:55:09;;;;;;;8.25;3.55;;;35.40;30.60;;;;;;5987435;29;20054;-79
2023/10/03 11:58:10;;;;;;;14.70;5.97;;;35.60;30.00;;;;;;5988395;29;20038;-78
2023/10/03 12:01:12;;;;;;;12.18;3.50;;;35.90;30.00;;;;;;5981609;29;20109;-77
2023/10/03 12:04:12;;;;;;;6.18;3.72;;;36.30;29.70;;;;;;5949785;29;20095;-78
2023/10/03 12:07:13;;;;;;;6.57;3.17;;;36.80;29.20;;;;;;5965341;29;20046;-77
2023/10/03 12:10:18;;;;;;;12.75;4.13;;;37.40;28.70;;;;;;5981885;29;20041;-79
2023/10/03 12:13:20;;;;;;;10.07;3.80;;;38.10;27.30;;;;;;5987168;29;20470;-79
2023/10/03 12:16:22;;;;;;;8.93;3.45;;;38.00;27.60;;;;;;5987536;29;20721;-78
2023/10/03 12:19:23;;;;;;;8.50;3.75;;;38.40;27.50;;;;;;6003953;29;20034;-79
2023/10/03 12:22:23;;;;;;;17.83;3.75;;;38.80;27.20;;;;;;5986335;29;20061;-78
2023/10/03 12:25:27;;;;;;;8.32;3.50;;;39.30;26.70;;;;;;6003738;29;20511;-79
2023/10/03 12:28:27;;;;;;;8.82;3.20;;;39.50;26.10;;;;;;5986382;29;20104;-79
2023/10/03 12:31:29;;;;;;;6.47;2.88;;;39.60;25.80;;;;;;5987064;29;20061;-78
2023/10/03 12:34:32;;;;;;;5.55;3.25;;;39.70;25.80;;;;;;5986766;29;20434;-77
2023/10/03 12:37:34;;;;;;;5.10;2.92;;;39.80;25.50;;;;;;6001959;29;20105;-79
2023/10/03 12:40:35;;;;;;;5.47;3.20;;;40.00;25.50;;;;;;6001330;29;20042;-79
2023/10/03 12:43:46;;;;;;;8.00;2.97;;;40.30;25.20;;;;;;6003363;29;20124;-78
2023/10/03 12:46:46;;;;;;;5.60;3.10;;;40.50;25.00;;;;;;6001402;29;20048;-78
2023/10/03 12:49:47;;;;;;;5.22;3.20;;;40.50;24.60;;;;;;5971145;29;20030;-78
2023/10/03 12:52:49;;;;;;;7.80;3.00;;;40.00;24.90;;;;;;6000435;29;20523;-79
2023/10/03 12:55:49;;;;;;;7.25;2.85;;;39.20;25.70;;;;;;5963791;29;20102;-78
2023/10/03 12:58:50;;;;;;;10.48;3.22;;;38.10;26.40;;;;;;5963858;29;20336;-79
2023/10/03 13:01:51;;;;;;;6.55;3.20;;;37.20;27.10;;;;;;5964730;29;20068;-78
2023/10/03 13:04:52;;;;;;;6.28;3.15;;;36.50;27.70;;;;;;5978895;29;20456;-77
2023/10/03 13:07:53;;;;;;;5.55;2.95;;;35.70;28.40;;;;;;5963466;29;20736;-78
2023/10/03 13:10:54;;;;;;;7.32;3.13;;;35.00;29.00;;;;;;5978518;29;20038;-78
2023/10/03 13:13:55;;;;;;;9.40;3.20;;;34.40;29.60;;;;;;5979550;29;20125;-79
2023/10/03 13:17:01;;;;;;;9.73;2.80;;;33.90;30.10;;;;;;5979151;29;20043;-79
2023/10/03 13:20:04;;;;;;;7.38;3.47;;;33.50;30.70;;;;;;5980246;29;20042;-79
2023/10/03 13:23:05;;;;;;;6.47;3.13;;;33.10;31.20;;;;;;5980305;29;20086;-78
2023/10/03 13:26:06;;;;;;;4.22;2.78;;;32.80;31.70;;;;;;5980801;29;20041;-80
2023/10/03 13:29:07;;;;;;;6.50;2.92;;;32.50;32.30;;;;;;5980455;29;20038;-78
2023/10/03 13:32:08;;;;;;;6.65;2.90;;;32.30;32.80;;;;;;5964281;29;20046;-78
2023/10/03 13:35:13;;;;;;;5.07;3.05;;;32.00;33.20;;;;;;5984825;29;20039;-76
2023/10/03 13:38:14;;;;;;;3.58;2.22;;;31.80;33.70;;;;;;5982184;29;20045;-78
2023/10/03 13:41:15;;;;;;;4.82;2.30;;;31.60;34.00;;;;;;5968732;29;20034;-79
2023/10/03 13:44:16;;;;;;;4.60;2.55;;;31.50;34.20;;;;;;5969230;29;20082;-80
2023/10/03 13:47:16;;;;;;;3.78;2.00;;;31.30;34.00;;;;;;5985922;29;20394;-76
2023/10/03 13:50:17;;;;;;;3.30;2.05;;;31.20;34.00;;;;;;5991412;29;20056;-79
2023/10/03 13:53:20;;;;;;;5.43;2.72;;;31.20;34.10;;;;;;5991650;29;20058;-78
2023/10/03 13:56:21;;;;;;;6.13;3.75;;;31.10;34.40;;;;;;5984286;29;20045;-79
2023/10/03 13:59:22;;;;;;;5.20;2.47;;;31.00;34.70;;;;;;5983601;29;20035;-79
2023/10/03 14:02:23;;;;;;;7.30;2.25;;;31.00;35.00;;;;;;5984232;29;20121;-77
2023/10/03 14:05:23;;;;;;;5.85;2.45;;;30.90;35.30;;;;;;5967290;29;20483;-77
2023/10/03 14:08:24;;;;;;;6.47;2.67;;;30.80;35.50;;;;;;5984252;29;20464;-79
2023/10/03 14:11:26;;;;;;;4.60;2.38;;;30.80;35.70;;;;;;5983750;29;20570;-79
2023/10/03 14:14:28;;;;;;;10.77;2.65;;;30.70;35.90;;;;;;5967845;29;20137;-77
2023/10/03 14:17:29;;;;;;;8.10;2.28;;;30.70;36.00;;;;;;5967107;29;20484;-78
2023/10/03 14:20:30;;;;;;;4.50;2.55;;;30.70;36.20;;;;;;5983323;29;20087;-79
2023/10/03 14:23:31;;;;;;;4.30;2.53;;;30.60;36.40;;;;;;5967436;29;20042;-78
2023/10/03 14:26:34;;;;;;;4.32;2.30;;;30.60;36.80;;;;;;5983524;29;20170;-82
2023/10/03 14:29:35;;;;;;;6.00;2.55;;;30.50;37.00;;;;;;5967196;29;20442;-78
2023/10/03 14:32:42;;;;;;;4.88;2.28;;;30.50;37.20;;;;;;5983137;29;20048;-78
2023/10/03 14:35:43;;;;;;;4.10;2.40;;;30.40;37.20;;;;;;5966895;29;20031;-79
2023/10/03 14:38:45;;;;;;;3.08;2.22;;;30.40;37.30;;;;;;5966572;29;20480;-79
2023/10/03 14:41:49;;;;;;;2.95;2.17;;;30.40;37.20;;;;;;5983358;29;20062;-79
2023/10/03 14:44:50;;;;;;;5.55;2.60;;;30.40;37.40;;;;;;5982852;29;20041;-80
2023/10/03 14:47:51;;;;;;;12.35;2.65;;;30.40;37.40;;;;;;5966365;29;20072;-78
2023/10/03 14:50:57;;;;;;;6.75;2.40;;;30.40;37.40;;;;;;5967650;29;20069;-78
2023/10/03 14:53:58;;;;;;;4.72;2.25;;;30.40;37.50;;;;;;5966578;29;20170;-77
2023/10/03 14:56:59;;;;;;;4.00;2.45;;;30.40;37.80;;;;;;5981483;29;20121;-79
2023/10/03 15:00:00;;;;;;;4.53;2.53;;;30.40;37.90;;;;;;5982505;29;20046;-79
2023/10/03 15:03:00;;;;;;;3.22;2.10;;;30.30;37.70;;;;;;5966407;29;20072;-78
2023/10/03 15:06:02;;;;;;;6.10;2.42;;;30.30;37.60;;;;;;5967775;29;20042;-79
2023/10/03 15:09:04;;;;;;;4.60;2.25;;;30.30;37.60;;;;;;5982480;29;20117;-78
2023/10/03 15:12:06;;;;;;;5.57;2.45;;;30.30;37.60;;;;;;5997692;29;20110;-78
2023/10/03 15:15:11;;;;;;;4.35;2.65;;;30.30;37.80;;;;;;6004265;29;20030;-79
2023/10/03 15:18:12;;;;;;;3.42;2.35;;;30.30;38.10;;;;;;5988656;29;20069;-78
2023/10/03 15:21:13;;;;;;;2.83;2.03;;;30.20;38.30;;;;;;6003725;29;20045;-79
2023/10/03 15:24:14;;;;;;;3.15;2.00;;;30.10;38.30;;;;;;6004956;29;20065;-78
2023/10/03 15:27:19;;;;;;;5.05;2.67;;;30.20;38.30;;;;;;5988391;29;20038;-78
2023/10/03 15:30:20;;;;;;;4.50;2.65;;;30.10;38.30;;;;;;5988382;29;20451;-78
2023/10/03 15:33:21;;;;;;;4.90;2.70;;;30.00;38.30;;;;;;6005783;29;20022;-78
2023/10/03 15:36:22;;;;;;;11.15;2.70;;;30.10;38.40;;;;;;6004843;29;20518;-77
2023/10/03 15:39:23;;;;;;;4.47;2.30;;;30.10;38.30;;;;;;5988350;29;20126;-79
2023/10/03 15:42:24;;;;;;;3.03;2.20;;;30.20;38.50;;;;;;5995682;29;20233;-78
2023/10/03 15:45:25;;;;;;;4.70;2.20;;;30.10;38.60;;;;;;5966055;29;20358;-80
2023/10/03 15:48:28;;;;;;;5.35;2.58;;;30.10;38.80;;;;;;5988595;29;20081;-81